Time,TemperatureF,DewpointF,PressureIn,WindDirection,WindDirectionDegrees,WindSpeedMPH,WindSpeedGustMPH,Humidity,HourlyPrecipIn,Conditions,Clouds,dailyrainin,SolarRadiationWatts/m^2,SoftwareType,DateUTC
2013-05-06 00:00:00,51.0,41.0,-100.00,NNE,22,2.0,-999.0,69,-99.99,,,-99.99,0.000000,,2013-05-06 04:00:00,
2013-05-06 00:43:00,51.0,41.0,-100.00,NNE,22,2.0,-999.0,69,-99.99,,,-99.99,0.000000,,2013-05-06 04:43:00,
2013-05-06 00:53:00,51.0,41.0,-100.00,NNE,22,2.0,-999.0,69,-99.99,,,-99.99,0.000000,,2013-05-06 04:53:00,
2013-05-06 01:00:00,55.0,40.0,-100.00,ENE,67,3.0,-999.0,56,-99.99,,,-99.99,0.000000,,2013-05-06 05:00:00,
2013-05-06 01:42:00,55.0,40.0,-100.00,ENE,67,3.0,-999.0,56,-99.99,,,-99.99,0.000000,,2013-05-06 05:42:00,
2013-05-06 01:52:00,55.0,40.0,-100.00,ENE,67,3.0,-999.0,56,-99.99,,,-99.99,0.000000,,2013-05-06 05:52:00,
2013-05-06 02:00:00,57.0,40.0,-100.00,ENE,67,5.0,-999.0,54,-99.99,,,-99.99,0.000000,,2013-05-06 06:00:00,
2013-05-06 02:42:00,57.0,40.0,-100.00,ENE,67,5.0,-999.0,54,-99.99,,,-99.99,0.000000,,2013-05-06 06:42:00,
2013-05-06 02:52:00,57.0,40.0,-100.00,ENE,67,5.0,-999.0,54,-99.99,,,-99.99,0.000000,,2013-05-06 06:52:00,
2013-05-06 03:00:00,54.0,41.0,-100.00,ENE,67,4.0,-999.0,61,-99.99,,,-99.99,0.000000,,2013-05-06 07:00:00,
2013-05-06 03:42:00,54.0,41.0,-100.00,ENE,67,4.0,-999.0,61,-99.99,,,-99.99,0.000000,,2013-05-06 07:42:00,
2013-05-06 03:52:00,54.0,41.0,-100.00,ENE,67,4.0,-999.0,61,-99.99,,,-99.99,0.000000,,2013-05-06 07:52:00,
2013-05-06 04:00:00,52.0,41.0,-100.00,ENE,67,3.0,-999.0,66,-99.99,,,-99.99,0.000000,,2013-05-06 08:00:00,
2013-05-06 04:42:00,52.0,41.0,-100.00,ENE,67,3.0,-999.0,66,-99.99,,,-99.99,0.000000,,2013-05-06 08:42:00,
2013-05-06 04:52:00,52.0,41.0,-100.00,ENE,67,3.0,-999.0,66,-99.99,,,-99.99,0.000000,,2013-05-06 08:52:00,
2013-05-06 05:00:00,50.0,40.0,-100.00,ENE,67,4.0,-999.0,68,-99.99,,,-99.99,0.000000,,2013-05-06 09:00:00,
2013-05-06 05:43:00,50.0,40.0,-100.00,ENE,67,4.0,-999.0,68,-99.99,,,-99.99,0.000000,,2013-05-06 09:43:00,
2013-05-06 05:53:00,50.0,40.0,-100.00,ENE,67,4.0,-999.0,68,-99.99,,,-99.99,0.000000,,2013-05-06 09:53:00,
2013-05-06 06:00:00,51.0,39.0,-100.00,ENE,67,4.0,-999.0,64,-99.99,,,-99.99,0.000000,,2013-05-06 10:00:00,
2013-05-06 06:42:00,51.0,39.0,-100.00,ENE,67,4.0,-999.0,64,-99.99,,,-99.99,0.000000,,2013-05-06 10:42:00,
2013-05-06 06:52:00,51.0,39.0,-100.00,ENE,67,4.0,-999.0,64,-99.99,,,-99.99,0.000000,,2013-05-06 10:52:00,
2013-05-06 07:00:00,50.0,39.0,-100.00,ENE,67,4.0,-999.0,64,-99.99,,,-99.99,13.920000,,2013-05-06 11:00:00,
2013-05-06 07:42:00,50.0,39.0,-100.00,ENE,67,4.0,-999.0,64,-99.99,,,-99.99,13.920000,,2013-05-06 11:42:00,
2013-05-06 07:52:00,50.0,39.0,-100.00,ENE,67,4.0,-999.0,64,-99.99,,,-99.99,13.920000,,2013-05-06 11:52:00,
2013-05-06 10:00:00,58.0,42.0,-100.00,East,90,4.0,-999.0,56,-99.99,,,-99.99,247.080002,,2013-05-06 14:00:00,
2013-05-06 10:42:00,58.0,42.0,-100.00,East,90,4.0,-999.0,56,-99.99,,,-99.99,247.080002,,2013-05-06 14:42:00,
2013-05-06 10:52:00,58.0,42.0,-100.00,East,90,4.0,-999.0,56,-99.99,,,-99.99,247.080002,,2013-05-06 14:52:00,
2013-05-06 11:00:00,62.0,42.0,-100.00,ESE,112,6.0,-999.0,47,-99.99,,,-99.99,512.719971,,2013-05-06 15:00:00,
2013-05-06 11:43:00,62.0,42.0,-100.00,ESE,112,6.0,-999.0,47,-99.99,,,-99.99,512.719971,,2013-05-06 15:43:00,
2013-05-06 11:53:00,62.0,42.0,-100.00,ESE,112,6.0,-999.0,47,-99.99,,,-99.99,512.719971,,2013-05-06 15:53:00,
2013-05-06 12:00:00,65.0,42.0,-100.00,East,90,6.0,-999.0,43,-99.99,,,-99.99,520.840027,,2013-05-06 16:00:00,
2013-05-06 12:42:00,65.0,42.0,-100.00,East,90,6.0,-999.0,43,-99.99,,,-99.99,520.840027,,2013-05-06 16:42:00,
2013-05-06 12:52:00,65.0,42.0,-100.00,East,90,6.0,-999.0,43,-99.99,,,-99.99,520.840027,,2013-05-06 16:52:00,
2013-05-06 13:00:00,66.0,43.0,-100.00,East,90,6.0,-999.0,43,-99.99,,,-99.99,625.239990,,2013-05-06 17:00:00,
2013-05-06 13:42:00,66.0,43.0,-100.00,East,90,6.0,-999.0,43,-99.99,,,-99.99,625.239990,,2013-05-06 17:42:00,
2013-05-06 13:52:00,66.0,43.0,-100.00,East,90,6.0,-999.0,43,-99.99,,,-99.99,625.239990,,2013-05-06 17:52:00,
2013-05-06 14:00:00,67.0,44.0,-100.00,East,90,7.0,-999.0,43,-99.99,,,-99.99,613.640015,,2013-05-06 18:00:00,
2013-05-06 14:43:00,67.0,44.0,-100.00,East,90,7.0,-999.0,43,-99.99,,,-99.99,613.640015,,2013-05-06 18:43:00,
2013-05-06 14:52:00,67.0,44.0,-100.00,East,90,7.0,-999.0,43,-99.99,,,-99.99,613.640015,,2013-05-06 18:52:00,
2013-05-06 15:00:00,69.0,46.0,-100.00,ESE,112,8.0,-999.0,43,-99.99,,,-99.99,606.679993,,2013-05-06 19:00:00,
2013-05-06 15:42:00,69.0,46.0,-100.00,ESE,112,8.0,-999.0,43,-99.99,,,-99.99,606.679993,,2013-05-06 19:42:00,
2013-05-06 15:52:00,69.0,46.0,-100.00,ESE,112,8.0,-999.0,43,-99.99,,,-99.99,606.679993,,2013-05-06 19:52:00,
2013-05-06 16:00:00,68.0,46.0,-100.00,ESE,112,9.0,-999.0,45,-99.99,,,-99.99,511.559998,,2013-05-06 20:00:00,
2013-05-06 16:42:00,68.0,46.0,-100.00,ESE,112,9.0,-999.0,45,-99.99,,,-99.99,511.559998,,2013-05-06 20:42:00,
2013-05-06 16:52:00,68.0,46.0,-100.00,ESE,112,9.0,-999.0,45,-99.99,,,-99.99,511.559998,,2013-05-06 20:52:00,
2013-05-06 17:00:00,68.0,46.0,-100.00,ESE,112,9.0,-999.0,45,-99.99,,,-99.99,524.320007,,2013-05-06 21:00:00,
2013-05-06 17:43:00,68.0,46.0,-100.00,ESE,112,9.0,-999.0,45,-99.99,,,-99.99,524.320007,,2013-05-06 21:43:00,
2013-05-06 17:53:00,68.0,46.0,-100.00,ESE,112,9.0,-999.0,45,-99.99,,,-99.99,524.320007,,2013-05-06 21:53:00,
2013-05-06 18:00:00,68.0,46.0,-100.00,ESE,112,10.0,-999.0,45,-99.99,,,-99.99,426.880005,,2013-05-06 22:00:00,
2013-05-06 18:45:00,68.0,46.0,-100.00,ESE,112,10.0,-999.0,45,-99.99,,,-99.99,426.880005,,2013-05-06 22:45:00,
2013-05-06 18:52:00,68.0,46.0,-100.00,ESE,112,10.0,-999.0,45,-99.99,,,-99.99,426.880005,,2013-05-06 22:52:00,
2013-05-06 19:00:00,67.0,45.0,-100.00,ESE,112,8.0,-999.0,45,-99.99,,,-99.99,257.519989,,2013-05-06 23:00:00,
2013-05-06 19:42:00,67.0,45.0,-100.00,ESE,112,8.0,-999.0,45,-99.99,,,-99.99,257.519989,,2013-05-06 23:42:00,
2013-05-06 19:52:00,67.0,45.0,-100.00,ESE,112,8.0,-999.0,45,-99.99,,,-99.99,257.519989,,2013-05-06 23:52:00,
2013-05-06 21:00:00,61.0,43.0,-100.00,SE,135,5.0,-999.0,52,-99.99,,,-99.99,8.120000,,2013-05-07 01:00:00,
2013-05-06 21:42:00,61.0,43.0,-100.00,SE,135,5.0,-999.0,52,-99.99,,,-99.99,8.120000,,2013-05-07 01:42:00,
2013-05-06 21:53:00,61.0,43.0,-100.00,SE,135,5.0,-999.0,52,-99.99,,,-99.99,8.120000,,2013-05-07 01:53:00,
2013-05-06 22:00:00,58.0,45.0,-100.00,ESE,112,3.0,-999.0,60,-99.99,,,-99.99,0.000000,,2013-05-07 02:00:00,
2013-05-06 22:32:00,58.0,45.0,-100.00,ESE,112,3.0,-999.0,60,-99.99,,,-99.99,0.000000,,2013-05-07 02:32:00,
2013-05-06 22:42:00,58.0,45.0,-100.00,ESE,112,3.0,-999.0,60,-99.99,,,-99.99,0.000000,,2013-05-07 02:42:00,
2013-05-06 22:52:00,58.0,45.0,-100.00,ESE,112,3.0,-999.0,60,-99.99,,,-99.99,0.000000,,2013-05-07 02:52:00,
2013-05-06 23:00:00,54.0,44.0,-100.00,ESE,112,3.0,-999.0,67,-99.99,,,-99.99,0.000000,,2013-05-07 03:00:00,
2013-05-06 23:43:00,54.0,44.0,-100.00,ESE,112,3.0,-999.0,67,-99.99,,,-99.99,0.000000,,2013-05-07 03:43:00,
2013-05-06 23:53:00,54.0,44.0,-100.00,ESE,112,3.0,-999.0,67,-99.99,,,-99.99,0.000000,,2013-05-07 03:53:00,